Space — ZCTI8 — position and weather

sailwx.info

Track history (hours):
 
Tides and Currents Weather Stations Pressure Air Temp Water Temp Dewpoint Dewpoint Depression Visibility Wind Speed Wind Dir Waves Ship Positions

Space

Last reported at 2014-Jul-27 21:27 UTC. Time now 2014-Jul-29 08:45 UTC.
Position N 40°45' E 013°26'.

Length 45 m; draft 2.7 m.

Type: Pleasure craft. MMSI: 319917000.

Date/timePositionNaut miles runAvg speedWind from/ knotsBaromVisibWave heightAir tempDewpointWater temp
2014-Jul-27 21:27N 40°45' E 013°26'1011.2
2014-Jul-27 20:33N 40°42' E 013°38'1111.0
2014-Jul-27 19:33N 40°38' E 013°52'1110.7
2014-Jul-27 18:33N 40°36' E 014°06'8 7.6
2014-Jul-27 17:29N 40°33' E 014°16'1 1.5
2014-Jul-27 16:30N 40°34' E 014°14'0 0.0
2014-Jul-27 15:21N 40°34' E 014°14'0 0.0
2014-Jul-27 14:24N 40°34' E 014°14'0 0.0
2014-Jul-27 13:33N 40°34' E 014°14'0 0.0
2014-Jul-27 12:21N 40°34' E 014°14'0 0.0
2014-Jul-27 11:33N 40°34' E 014°14'0 0.0
2014-Jul-27 10:33N 40°34' E 014°14'0 0.0
2014-Jul-27 09:33N 40°34' E 014°14'0 0.0
2014-Jul-27 08:33N 40°34' E 014°14'0 0.0
2014-Jul-27 07:27N 40°34' E 014°14'0 0.0
2014-Jul-27 06:30N 40°34' E 014°14'0 0.0
2014-Jul-27 05:30N 40°34' E 014°14'0 0.1
2014-Jul-27 04:30N 40°34' E 014°14'1 0.1
2014-Jul-26 14:22N 40°32' E 014°14'0 0.0
2014-Jul-26 04:31N 40°32' E 014°14'0 0.0
2014-Jul-26 03:28N 40°32' E 014°14'0 0.0
2014-Jul-26 01:25N 40°32' E 014°14'0 0.0
2014-Jul-26 00:16N 40°32' E 014°14'0 0.0
2014-Jul-25 23:13N 40°32' E 014°14'0 0.0
2014-Jul-25 22:31N 40°32' E 014°14'0 0.0
2014-Jul-25 21:28N 40°32' E 014°14'0 0.0
2014-Jul-25 19:28N 40°32' E 014°14'0 0.0
2014-Jul-25 06:15N 40°32' E 014°15'11 6.1
2014-Jul-25 04:24N 40°35' E 014°00'8 8.2
2014-Jul-25 03:26N 40°38' E 013°51'7 8.1
2014-Jul-25 02:32N 40°40' E 013°42'8 8.3
2014-Jul-25 01:33N 40°43' E 013°31'  
2014-Jul-18 18:33N 41°26' E 008°53'9 0.9
2014-Jul-18 09:32N 41°33' E 008°46'5 5.4
2014-Jul-18 08:33N 41°38' E 008°49'27 6.8
2014-Jul-18 04:30N 41°60' E 008°26'1212.8
2014-Jul-18 03:33N 42°11' E 008°19'1212.4
2014-Jul-18 02:33N 42°22' E 008°12'1312.5
2014-Jul-18 01:32N 42°34' E 008°06'1312.8
2014-Jul-18 00:33N 42°45' E 007°59'1312.8
2014-Jul-17 23:33N 42°57' E 007°51'1312.9
2014-Jul-17 22:33N 43°08' E 007°43'1312.9
2014-Jul-17 21:32N 43°20' E 007°35'  
Track history (hours):
 
Tides and Currents Weather Stations Pressure Air Temp Water Temp Dewpoint Dewpoint Depression Visibility Wind Speed Wind Dir Waves Ship Positions

Space

Last reported at 2014-Jul-27 21:27 UTC. Time now 2014-Jul-29 08:45 UTC.
Position N 40°45' E 013°26'.

Length 45 m; draft 2.7 m.

Type: Pleasure craft. MMSI: 319917000.

Date/timePositionNaut miles runAvg speedWind from/ knotsBaromVisibWave heightAir tempDewpointWater temp
2014-Jul-27 21:27N 40°45' E 013°26'1011.2
2014-Jul-27 20:33N 40°42' E 013°38'1111.0
2014-Jul-27 19:33N 40°38' E 013°52'1110.7
2014-Jul-27 18:33N 40°36' E 014°06'8 7.6
2014-Jul-27 17:29N 40°33' E 014°16'1 1.5
2014-Jul-27 16:30N 40°34' E 014°14'0 0.0
2014-Jul-27 15:21N 40°34' E 014°14'0 0.0
2014-Jul-27 14:24N 40°34' E 014°14'0 0.0
2014-Jul-27 13:33N 40°34' E 014°14'0 0.0
2014-Jul-27 12:21N 40°34' E 014°14'0 0.0
2014-Jul-27 11:33N 40°34' E 014°14'0 0.0
2014-Jul-27 10:33N 40°34' E 014°14'0 0.0
2014-Jul-27 09:33N 40°34' E 014°14'0 0.0
2014-Jul-27 08:33N 40°34' E 014°14'0 0.0
2014-Jul-27 07:27N 40°34' E 014°14'0 0.0
2014-Jul-27 06:30N 40°34' E 014°14'0 0.0
2014-Jul-27 05:30N 40°34' E 014°14'0 0.1
2014-Jul-27 04:30N 40°34' E 014°14'1 0.1
2014-Jul-26 14:22N 40°32' E 014°14'0 0.0
2014-Jul-26 04:31N 40°32' E 014°14'0 0.0
2014-Jul-26 03:28N 40°32' E 014°14'0 0.0
2014-Jul-26 01:25N 40°32' E 014°14'0 0.0
2014-Jul-26 00:16N 40°32' E 014°14'0 0.0
2014-Jul-25 23:13N 40°32' E 014°14'0 0.0
2014-Jul-25 22:31N 40°32' E 014°14'0 0.0
2014-Jul-25 21:28N 40°32' E 014°14'0 0.0
2014-Jul-25 19:28N 40°32' E 014°14'0 0.0
2014-Jul-25 06:15N 40°32' E 014°15'11 6.1
2014-Jul-25 04:24N 40°35' E 014°00'8 8.2
2014-Jul-25 03:26N 40°38' E 013°51'7 8.1
2014-Jul-25 02:32N 40°40' E 013°42'8 8.3
2014-Jul-25 01:33N 40°43' E 013°31'  
2014-Jul-18 18:33N 41°26' E 008°53'9 0.9
2014-Jul-18 09:32N 41°33' E 008°46'5 5.4
2014-Jul-18 08:33N 41°38' E 008°49'27 6.8
2014-Jul-18 04:30N 41°60' E 008°26'1212.8
2014-Jul-18 03:33N 42°11' E 008°19'1212.4
2014-Jul-18 02:33N 42°22' E 008°12'1312.5
2014-Jul-18 01:32N 42°34' E 008°06'1312.8
2014-Jul-18 00:33N 42°45' E 007°59'1312.8
2014-Jul-17 23:33N 42°57' E 007°51'1312.9
2014-Jul-17 22:33N 43°08' E 007°43'1312.9
2014-Jul-17 21:32N 43°20' E 007°35'  

Dump ship's entire track history